sensor_id;sensor_type;location;lat;lon;timestamp;pressure;altitude;pressure_sealevel;temperature;humidity
75775;BME280;64505;51.458;7.556;2023-04-25T00:01:36;99073.88;;;4.92;84.75
75775;BME280;64505;51.458;7.556;2023-04-25T00:03:39;99071.06;;;5.00;84.27
75775;BME280;64505;51.458;7.556;2023-04-25T00:05:41;99068.06;;;5.10;83.38
75775;BME280;64505;51.458;7.556;2023-04-25T00:07:43;99071.25;;;5.12;84.27
75775;BME280;64505;51.458;7.556;2023-04-25T00:09:44;99065.81;;;5.07;84.31
75775;BME280;64505;51.458;7.556;2023-04-25T00:11:46;99068.66;;;5.12;84.33
75775;BME280;64505;51.458;7.556;2023-04-25T00:13:47;99074.69;;;5.19;84.11
75775;BME280;64505;51.458;7.556;2023-04-25T00:15:49;99080.13;;;5.24;83.61
75775;BME280;64505;51.458;7.556;2023-04-25T00:17:51;99075.28;;;5.27;84.13
75775;BME280;64505;51.458;7.556;2023-04-25T00:19:54;99079.91;;;5.32;82.83
75775;BME280;64505;51.458;7.556;2023-04-25T00:21:55;99078.06;;;5.39;82.85
75775;BME280;64505;51.458;7.556;2023-04-25T00:23:57;99075.88;;;5.42;83.52
75775;BME280;64505;51.458;7.556;2023-04-25T00:25:58;99077.47;;;5.43;83.77
75775;BME280;64505;51.458;7.556;2023-04-25T00:28:00;99080.72;;;5.45;83.21
75775;BME280;64505;51.458;7.556;2023-04-25T00:30:01;99077.44;;;5.50;82.96
75775;BME280;64505;51.458;7.556;2023-04-25T00:32:03;99077.06;;;5.53;83.40
75775;BME280;64505;51.458;7.556;2023-04-25T00:34:06;99076.66;;;5.56;82.65
75775;BME280;64505;51.458;7.556;2023-04-25T00:36:07;99078.03;;;5.59;83.25
75775;BME280;64505;51.458;7.556;2023-04-25T00:38:09;99079.66;;;5.60;82.92
75775;BME280;64505;51.458;7.556;2023-04-25T00:40:11;99080.06;;;5.63;82.47
75775;BME280;64505;51.458;7.556;2023-04-25T00:42:13;99075.81;;;5.62;83.03
75775;BME280;64505;51.458;7.556;2023-04-25T00:44:15;99080.66;;;5.65;82.90
75775;BME280;64505;51.458;7.556;2023-04-25T00:46:18;99077.41;;;5.70;82.94
75775;BME280;64505;51.458;7.556;2023-04-25T00:48:22;99079.03;;;5.71;82.72
75775;BME280;64505;51.458;7.556;2023-04-25T00:50:24;99077.00;;;5.73;82.98
75775;BME280;64505;51.458;7.556;2023-04-25T00:52:25;99071.13;;;5.77;82.84
75775;BME280;64505;51.458;7.556;2023-04-25T00:54:27;99075.56;;;5.77;82.81
75775;BME280;64505;51.458;7.556;2023-04-25T00:56:28;99070.50;;;5.75;83.26
75775;BME280;64505;51.458;7.556;2023-04-25T00:58:30;99075.56;;;5.77;82.27
75775;BME280;64505;51.458;7.556;2023-04-25T01:00:32;99076.97;;;5.79;82.70
75775;BME280;64505;51.458;7.556;2023-04-25T01:02:34;99084.84;;;5.79;83.60
75775;BME280;64505;51.458;7.556;2023-04-25T01:04:37;99079.81;;;5.78;83.13
75775;BME280;64505;51.458;7.556;2023-04-25T01:06:40;99076.53;;;5.82;82.90
75775;BME280;64505;51.458;7.556;2023-04-25T01:08:41;99078.38;;;5.82;83.38
75775;BME280;64505;51.458;7.556;2023-04-25T01:10:43;99081.00;;;5.82;82.38
75775;BME280;64505;51.458;7.556;2023-04-25T01:12:44;99084.88;;;5.86;82.50
75775;BME280;64505;51.458;7.556;2023-04-25T01:14:46;99076.78;;;5.87;83.60
75775;BME280;64505;51.458;7.556;2023-04-25T01:16:48;99082.63;;;5.89;82.72
75775;BME280;64505;51.458;7.556;2023-04-25T01:18:50;99081.41;;;5.92;82.90
75775;BME280;64505;51.458;7.556;2023-04-25T01:20:53;99084.03;;;5.85;83.40
75775;BME280;64505;51.458;7.556;2023-04-25T01:22:55;99080.00;;;5.89;83.00
75775;BME280;64505;51.458;7.556;2023-04-25T01:27:35;99075.34;;;5.91;83.78
75775;BME280;64505;51.458;7.556;2023-04-25T01:29:37;99073.94;;;5.96;83.70
75775;BME280;64505;51.458;7.556;2023-04-25T01:31:38;99069.69;;;5.94;83.20
75775;BME280;64505;51.458;7.556;2023-04-25T01:33:40;99079.16;;;5.96;83.31
75775;BME280;64505;51.458;7.556;2023-04-25T01:35:42;99071.09;;;5.84;84.22
75775;BME280;64505;51.458;7.556;2023-04-25T01:37:44;99077.38;;;5.89;84.60
75775;BME280;64505;51.458;7.556;2023-04-25T01:39:46;99077.78;;;5.93;84.69
75775;BME280;64505;51.458;7.556;2023-04-25T01:41:48;99077.34;;;5.96;84.59
75775;BME280;64505;51.458;7.556;2023-04-25T01:43:50;99082.78;;;5.94;85.19
75775;BME280;64505;51.458;7.556;2023-04-25T01:45:52;99081.56;;;5.97;84.53
75775;BME280;64505;51.458;7.556;2023-04-25T01:47:53;99087.84;;;5.96;85.48
75775;BME280;64505;51.458;7.556;2023-04-25T01:49:55;99079.59;;;5.92;84.84
75775;BME280;64505;51.458;7.556;2023-04-25T01:51:57;99082.81;;;5.88;85.79
75775;BME280;64505;51.458;7.556;2023-04-25T01:53:59;99094.13;;;5.88;85.52
75775;BME280;64505;51.458;7.556;2023-04-25T01:56:01;99092.91;;;5.91;86.60
75775;BME280;64505;51.458;7.556;2023-04-25T01:58:02;99093.53;;;5.93;86.84
75775;BME280;64505;51.458;7.556;2023-04-25T02:00:06;99097.56;;;5.89;87.96
75775;BME280;64505;51.458;7.556;2023-04-25T02:02:08;99102.59;;;5.90;88.11
75775;BME280;64505;51.458;7.556;2023-04-25T02:04:09;99102.81;;;5.89;89.06
75775;BME280;64505;51.458;7.556;2023-04-25T02:06:11;99101.59;;;5.91;89.25
75775;BME280;64505;51.458;7.556;2023-04-25T02:08:12;99107.63;;;5.85;89.64
75775;BME280;64505;51.458;7.556;2023-04-25T02:10:14;99103.00;;;5.87;89.69
75775;BME280;64505;51.458;7.556;2023-04-25T02:12:16;99107.44;;;5.87;89.15
75775;BME280;64505;51.458;7.556;2023-04-25T02:14:17;99101.78;;;5.90;88.17
75775;BME280;64505;51.458;7.556;2023-04-25T02:16:19;99104.22;;;5.91;89.37
75775;BME280;64505;51.458;7.556;2023-04-25T02:18:20;99103.81;;;5.88;89.48
75775;BME280;64505;51.458;7.556;2023-04-25T02:20:23;99111.09;;;5.86;90.00
75775;BME280;64505;51.458;7.556;2023-04-25T02:22:25;99104.00;;;5.86;90.06
75775;BME280;64505;51.458;7.556;2023-04-25T02:24:28;99103.63;;;5.89;89.28
75775;BME280;64505;51.458;7.556;2023-04-25T02:26:29;99108.66;;;5.91;89.72
75775;BME280;64505;51.458;7.556;2023-04-25T02:28:31;99108.25;;;5.87;89.30
75775;BME280;64505;51.458;7.556;2023-04-25T02:30:32;99111.50;;;5.89;89.87
75775;BME280;64505;51.458;7.556;2023-04-25T02:32:34;99117.53;;;5.90;90.26
75775;BME280;64505;51.458;7.556;2023-04-25T02:34:35;99113.31;;;5.89;89.03
75775;BME280;64505;51.458;7.556;2023-04-25T02:36:37;99113.31;;;5.89;88.56
75775;BME280;64505;51.458;7.556;2023-04-25T02:38:39;99121.75;;;5.84;89.75
75775;BME280;64505;51.458;7.556;2023-04-25T02:40:41;99113.72;;;5.86;89.44
75775;BME280;64505;51.458;7.556;2023-04-25T02:42:42;99113.31;;;5.89;89.29
75775;BME280;64505;51.458;7.556;2023-04-25T02:44:44;99122.38;;;5.86;90.15
75775;BME280;64505;51.458;7.556;2023-04-25T02:46:45;99116.75;;;5.89;89.22
75775;BME280;64505;51.458;7.556;2023-04-25T02:48:47;99124.59;;;5.83;89.95
75775;BME280;64505;51.458;7.556;2023-04-25T02:50:48;99125.38;;;5.83;89.65
75775;BME280;64505;51.458;7.556;2023-04-25T02:52:49;99122.19;;;5.88;89.90
75775;BME280;64505;51.458;7.556;2023-04-25T02:54:51;99119.94;;;5.85;89.66
75775;BME280;64505;51.458;7.556;2023-04-25T02:56:53;99121.38;;;5.81;90.27
75775;BME280;64505;51.458;7.556;2023-04-25T02:58:54;99123.81;;;5.89;89.53
75775;BME280;64505;51.458;7.556;2023-04-25T03:00:56;99124.00;;;5.87;89.79
75775;BME280;64505;51.458;7.556;2023-04-25T03:02:57;99118.13;;;5.79;89.73
75775;BME280;64505;51.458;7.556;2023-04-25T03:04:59;99121.97;;;5.83;89.94
75775;BME280;64505;51.458;7.556;2023-04-25T03:07:00;99124.59;;;5.83;89.70
75775;BME280;64505;51.458;7.556;2023-04-25T03:09:02;99122.19;;;5.81;90.51
75775;BME280;64505;51.458;7.556;2023-04-25T03:11:03;99122.19;;;5.81;90.16
75775;BME280;64505;51.458;7.556;2023-04-25T03:13:05;99119.75;;;5.80;90.65
75775;BME280;64505;51.458;7.556;2023-04-25T03:15:06;99118.53;;;5.82;90.99
75775;BME280;64505;51.458;7.556;2023-04-25T03:17:08;99133.69;;;5.80;90.13
75775;BME280;64505;51.458;7.556;2023-04-25T03:19:10;99125.81;;;5.87;90.79
75775;BME280;64505;51.458;7.556;2023-04-25T03:21:11;99132.44;;;5.83;90.50
75775;BME280;64505;51.458;7.556;2023-04-25T03:23:12;99131.25;;;5.79;90.60
75775;BME280;64505;51.458;7.556;2023-04-25T03:25:14;99131.25;;;5.85;91.16
75775;BME280;64505;51.458;7.556;2023-04-25T03:27:16;99128.25;;;5.82;90.50
75775;BME280;64505;51.458;7.556;2023-04-25T03:29:18;99131.25;;;5.85;90.37
75775;BME280;64505;51.458;7.556;2023-04-25T03:31:20;99141.13;;;5.83;90.07
75775;BME280;64505;51.458;7.556;2023-04-25T03:33:22;99138.13;;;5.73;90.33
75775;BME280;64505;51.458;7.556;2023-04-25T03:35:23;99140.97;;;5.78;90.93
75775;BME280;64505;51.458;7.556;2023-04-25T03:37:26;99135.72;;;5.78;90.36
75775;BME280;64505;51.458;7.556;2023-04-25T03:39:27;99136.72;;;5.71;89.97
75775;BME280;64505;51.458;7.556;2023-04-25T03:41:29;99140.16;;;5.71;90.32
75775;BME280;64505;51.458;7.556;2023-04-25T03:43:30;99147.84;;;5.66;90.36
75775;BME280;64505;51.458;7.556;2023-04-25T03:45:32;99142.78;;;5.71;90.09
75775;BME280;64505;51.458;7.556;2023-04-25T03:47:34;99148.44;;;5.62;90.63
75775;BME280;64505;51.458;7.556;2023-04-25T03:49:35;99152.09;;;5.67;90.63
75775;BME280;64505;51.458;7.556;2023-04-25T03:51:37;99142.78;;;5.71;90.13
75775;BME280;64505;51.458;7.556;2023-04-25T03:53:39;99141.38;;;5.69;90.46
75775;BME280;64505;51.458;7.556;2023-04-25T03:55:40;99151.44;;;5.72;89.60
75775;BME280;64505;51.458;7.556;2023-04-25T03:57:43;99152.88;;;5.68;90.08
75775;BME280;64505;51.458;7.556;2023-04-25T03:59:45;99148.25;;;5.63;89.18
75775;BME280;64505;51.458;7.556;2023-04-25T04:01:46;99158.94;;;5.62;90.63
75775;BME280;64505;51.458;7.556;2023-04-25T04:03:48;99155.91;;;5.65;90.13
75775;BME280;64505;51.458;7.556;2023-04-25T04:05:50;99161.75;;;5.67;89.88
75775;BME280;64505;51.458;7.556;2023-04-25T04:07:51;99155.91;;;5.65;89.29
75775;BME280;64505;51.458;7.556;2023-04-25T04:09:53;99154.31;;;5.64;89.52
75775;BME280;64505;51.458;7.556;2023-04-25T04:11:54;99155.50;;;5.61;88.91
75775;BME280;64505;51.458;7.556;2023-04-25T04:13:56;99166.00;;;5.68;89.00
75775;BME280;64505;51.458;7.556;2023-04-25T04:15:57;99166.19;;;5.66;89.65
75775;BME280;64505;51.458;7.556;2023-04-25T04:17:59;99173.69;;;5.56;90.32
75775;BME280;64505;51.458;7.556;2023-04-25T04:20:04;99164.97;;;5.62;89.54
75775;BME280;64505;51.458;7.556;2023-04-25T04:22:07;99164.78;;;5.64;89.62
75775;BME280;64505;51.458;7.556;2023-04-25T04:24:08;99163.75;;;5.65;89.71
75775;BME280;64505;51.458;7.556;2023-04-25T04:26:10;99172.25;;;5.67;90.24
75775;BME280;64505;51.458;7.556;2023-04-25T04:28:12;99167.41;;;5.64;90.06
75775;BME280;64505;51.458;7.556;2023-04-25T04:30:14;99181.13;;;5.59;90.49
75775;BME280;64505;51.458;7.556;2023-04-25T04:32:16;99173.84;;;5.61;91.42
75775;BME280;64505;51.458;7.556;2023-04-25T04:34:18;99187.78;;;5.55;90.25
75775;BME280;64505;51.458;7.556;2023-04-25T04:36:19;99199.69;;;5.44;89.55
75775;BME280;64505;51.458;7.556;2023-04-25T04:38:23;99197.88;;;5.19;88.08
75775;BME280;64505;51.458;7.556;2023-04-25T04:40:25;99201.31;;;5.26;88.69
75775;BME280;64505;51.458;7.556;2023-04-25T04:42:26;99203.50;;;5.35;88.99
75775;BME280;64505;51.458;7.556;2023-04-25T04:44:29;99184.16;;;5.30;89.01
75775;BME280;64505;51.458;7.556;2023-04-25T04:46:33;99187.38;;;5.32;89.25
75775;BME280;64505;51.458;7.556;2023-04-25T04:48:43;99197.69;;;5.27;86.12
75775;BME280;64505;51.458;7.556;2023-04-25T04:50:45;99201.28;;;5.32;86.51
75775;BME280;64505;51.458;7.556;2023-04-25T04:52:47;99196.69;;;5.28;85.13
75775;BME280;64505;51.458;7.556;2023-04-25T04:54:48;99205.72;;;5.32;86.44
75775;BME280;64505;51.458;7.556;2023-04-25T04:56:50;99203.31;;;5.30;87.58
75775;BME280;64505;51.458;7.556;2023-04-25T04:58:52;99203.31;;;5.30;86.41
75775;BME280;64505;51.458;7.556;2023-04-25T05:00:53;99203.72;;;5.34;87.93
75775;BME280;64505;51.458;7.556;2023-04-25T05:02:56;99216.03;;;5.33;86.46
75775;BME280;64505;51.458;7.556;2023-04-25T05:04:58;99220.25;;;5.15;85.19
75775;BME280;64505;51.458;7.556;2023-04-25T05:06:59;99215.03;;;5.28;85.93
75775;BME280;64505;51.458;7.556;2023-04-25T05:09:00;99224.88;;;5.26;85.43
75775;BME280;64505;51.458;7.556;2023-04-25T05:11:02;99221.28;;;5.33;86.68
75775;BME280;64505;51.458;7.556;2023-04-25T05:13:04;99222.50;;;5.37;86.87
75775;BME280;64505;51.458;7.556;2023-04-25T05:15:05;99228.13;;;5.34;86.25
75775;BME280;64505;51.458;7.556;2023-04-25T05:17:07;99225.69;;;5.33;87.04
75775;BME280;64505;51.458;7.556;2023-04-25T05:19:09;99226.09;;;5.23;84.90
75775;BME280;64505;51.458;7.556;2023-04-25T05:21:11;99232.75;;;5.32;85.74
75775;BME280;64505;51.458;7.556;2023-04-25T05:23:12;99240.22;;;5.29;86.08
75775;BME280;64505;51.458;7.556;2023-04-25T05:25:14;99234.56;;;5.25;86.15
75775;BME280;64505;51.458;7.556;2023-04-25T05:27:18;99236.81;;;5.35;85.88
75775;BME280;64505;51.458;7.556;2023-04-25T05:29:19;99243.66;;;5.29;86.36
75775;BME280;64505;51.458;7.556;2023-04-25T05:31:21;99248.28;;;5.34;86.97
75775;BME280;64505;51.458;7.556;2023-04-25T05:33:22;99251.91;;;5.20;86.77
75775;BME280;64505;51.458;7.556;2023-04-25T05:35:24;99251.09;;;5.32;86.32
75775;BME280;64505;51.458;7.556;2023-04-25T05:37:25;99256.78;;;5.49;86.21
75775;BME280;64505;51.458;7.556;2023-04-25T05:39:27;99251.31;;;5.57;87.63
75775;BME280;64505;51.458;7.556;2023-04-25T05:41:28;99250.53;;;5.57;85.54
75775;BME280;64505;51.458;7.556;2023-04-25T05:43:30;99251.94;;;5.66;86.27
75775;BME280;64505;51.458;7.556;2023-04-25T05:45:31;99262.44;;;5.53;86.39
75775;BME280;64505;51.458;7.556;2023-04-25T05:47:33;99261.03;;;5.57;86.70
75775;BME280;64505;51.458;7.556;2023-04-25T05:49:34;99267.88;;;5.58;86.38
75775;BME280;64505;51.458;7.556;2023-04-25T05:51:36;99267.69;;;5.59;87.08
75775;BME280;64505;51.458;7.556;2023-04-25T05:53:37;99271.31;;;5.65;87.45
75775;BME280;64505;51.458;7.556;2023-04-25T05:55:39;99267.88;;;5.71;86.88
75775;BME280;64505;51.458;7.556;2023-04-25T05:57:40;99277.16;;;5.73;85.87
75775;BME280;64505;51.458;7.556;2023-04-25T05:59:42;99277.16;;;5.73;86.60
75775;BME280;64505;51.458;7.556;2023-04-25T06:01:44;99276.97;;;5.75;85.79
75775;BME280;64505;51.458;7.556;2023-04-25T06:03:45;99271.56;;;5.89;85.83
75775;BME280;64505;51.458;7.556;2023-04-25T06:05:47;99280.22;;;5.90;85.41
75775;BME280;64505;51.458;7.556;2023-04-25T06:07:49;99275.16;;;5.95;86.41
75775;BME280;64505;51.458;7.556;2023-04-25T06:09:50;99276.81;;;5.89;85.95
75775;BME280;64505;51.458;7.556;2023-04-25T06:11:52;99287.88;;;6.05;86.84
75775;BME280;64505;51.458;7.556;2023-04-25T06:13:53;99287.69;;;6.06;85.35
75775;BME280;64505;51.458;7.556;2023-04-25T06:15:55;99292.50;;;6.09;86.52
75775;BME280;64505;51.458;7.556;2023-04-25T06:17:57;99283.81;;;6.22;85.88
75775;BME280;64505;51.458;7.556;2023-04-25T06:19:58;99289.06;;;6.15;85.51
75775;BME280;64505;51.458;7.556;2023-04-25T06:22:00;99287.22;;;6.22;85.97
75775;BME280;64505;51.458;7.556;2023-04-25T06:24:01;99288.84;;;6.30;85.20
75775;BME280;64505;51.458;7.556;2023-04-25T06:26:03;99297.13;;;6.33;85.22
75775;BME280;64505;51.458;7.556;2023-04-25T06:28:04;99298.38;;;6.18;84.60
75775;BME280;64505;51.458;7.556;2023-04-25T06:30:06;99300.38;;;6.29;85.74
75775;BME280;64505;51.458;7.556;2023-04-25T06:32:08;99295.13;;;6.29;83.75
75775;BME280;64505;51.458;7.556;2023-04-25T06:34:09;99298.13;;;6.39;84.93
75775;BME280;64505;51.458;7.556;2023-04-25T06:36:11;99307.59;;;6.47;84.71
75775;BME280;64505;51.458;7.556;2023-04-25T06:38:12;99301.72;;;6.51;85.27
75775;BME280;64505;51.458;7.556;2023-04-25T06:40:14;99307.03;;;6.25;84.19
75775;BME280;64505;51.458;7.556;2023-04-25T06:42:16;99300.94;;;6.51;84.74
75775;BME280;64505;51.458;7.556;2023-04-25T06:44:17;99313.28;;;6.43;83.85
75775;BME280;64505;51.458;7.556;2023-04-25T06:46:19;99307.78;;;6.58;83.88
75775;BME280;64505;51.458;7.556;2023-04-25T06:48:20;99302.75;;;6.37;84.40
75775;BME280;64505;51.458;7.556;2023-04-25T06:50:22;99305.00;;;6.40;83.96
75775;BME280;64505;51.458;7.556;2023-04-25T06:52:23;99313.81;;;6.65;83.68
75775;BME280;64505;51.458;7.556;2023-04-25T06:54:24;99303.56;;;6.51;83.59
75775;BME280;64505;51.458;7.556;2023-04-25T06:56:28;99307.34;;;6.68;84.42
75775;BME280;64505;51.458;7.556;2023-04-25T06:58:30;99311.16;;;6.78;83.05
75775;BME280;64505;51.458;7.556;2023-04-25T07:00:32;99311.59;;;6.69;83.69
75775;BME280;64505;51.458;7.556;2023-04-25T07:02:35;99310.41;;;6.52;83.25
75775;BME280;64505;51.458;7.556;2023-04-25T07:04:37;99319.09;;;6.52;82.49
75775;BME280;64505;51.458;7.556;2023-04-25T07:06:39;99310.06;;;6.92;82.90
75775;BME280;64505;51.458;7.556;2023-04-25T07:08:43;99305.59;;;7.00;82.95
75775;BME280;64505;51.458;7.556;2023-04-25T07:10:45;99315.56;;;6.84;82.17
75775;BME280;64505;51.458;7.556;2023-04-25T07:12:50;99317.13;;;7.05;81.12
75775;BME280;64505;51.458;7.556;2023-04-25T07:14:51;99312.13;;;7.28;81.71
75775;BME280;64505;51.458;7.556;2023-04-25T07:16:53;99313.69;;;7.36;80.51
75775;BME280;64505;51.458;7.556;2023-04-25T07:18:54;99316.47;;;7.48;81.71
75775;BME280;64505;51.458;7.556;2023-04-25T07:20:56;99316.72;;;7.39;80.41
75775;BME280;64505;51.458;7.556;2023-04-25T07:22:57;99324.78;;;7.45;77.56
75775;BME280;64505;51.458;7.556;2023-04-25T07:24:59;99332.78;;;7.63;78.02
75775;BME280;64505;51.458;7.556;2023-04-25T07:27:01;99318.75;;;7.69;78.93
75775;BME280;64505;51.458;7.556;2023-04-25T07:29:03;99327.72;;;7.86;76.74
75775;BME280;64505;51.458;7.556;2023-04-25T07:31:05;99325.31;;;7.84;75.14
75775;BME280;64505;51.458;7.556;2023-04-25T07:33:06;99332.78;;;7.63;75.48
75775;BME280;64505;51.458;7.556;2023-04-25T07:35:08;99329.94;;;7.89;78.04
75775;BME280;64505;51.458;7.556;2023-04-25T07:37:09;99329.28;;;7.93;75.16
75775;BME280;64505;51.458;7.556;2023-04-25T07:39:11;99327.09;;;7.90;76.26
75775;BME280;64505;51.458;7.556;2023-04-25T07:41:13;99337.22;;;7.62;74.58
75775;BME280;64505;51.458;7.556;2023-04-25T07:43:14;99330.47;;;7.73;76.18
75775;BME280;64505;51.458;7.556;2023-04-25T07:45:17;99339.06;;;7.86;75.83
75775;BME280;64505;51.458;7.556;2023-04-25T07:47:19;99342.94;;;7.53;72.23
75775;BME280;64505;51.458;7.556;2023-04-25T07:49:20;99344.22;;;7.75;72.62
75775;BME280;64505;51.458;7.556;2023-04-25T07:51:22;99354.16;;;7.73;73.36
75775;BME280;64505;51.458;7.556;2023-04-25T07:53:23;99359.56;;;7.84;73.04
75775;BME280;64505;51.458;7.556;2023-04-25T07:55:25;99358.56;;;7.79;72.95
75775;BME280;64505;51.458;7.556;2023-04-25T07:57:27;99359.19;;;8.06;71.86
75775;BME280;64505;51.458;7.556;2023-04-25T07:59:29;99355.56;;;8.31;73.68
75775;BME280;64505;51.458;7.556;2023-04-25T08:01:30;99360.31;;;8.16;71.70
75775;BME280;64505;51.458;7.556;2023-04-25T08:03:32;99357.75;;;8.03;71.26
75775;BME280;64505;51.458;7.556;2023-04-25T08:05:34;99367.69;;;8.32;71.15
75775;BME280;64505;51.458;7.556;2023-04-25T08:07:36;99364.56;;;8.17;70.68
75775;BME280;64505;51.458;7.556;2023-04-25T08:09:37;99369.59;;;8.19;72.05
75775;BME280;64505;51.458;7.556;2023-04-25T08:11:39;99369.09;;;8.35;71.40
75775;BME280;64505;51.458;7.556;2023-04-25T08:13:40;99372.88;;;8.64;72.39
75775;BME280;64505;51.458;7.556;2023-04-25T08:15:42;99377.34;;;8.63;71.26
75775;BME280;64505;51.458;7.556;2023-04-25T08:17:43;99386.88;;;8.64;67.96
75775;BME280;64505;51.458;7.556;2023-04-25T08:19:45;99386.03;;;8.46;69.84
75775;BME280;64505;51.458;7.556;2023-04-25T08:21:46;99382.47;;;8.33;68.33
75775;BME280;64505;51.458;7.556;2023-04-25T08:23:48;99387.50;;;8.60;70.73
75775;BME280;64505;51.458;7.556;2023-04-25T08:25:49;99390.88;;;8.67;73.38
75775;BME280;64505;51.458;7.556;2023-04-25T08:27:51;99400.03;;;8.39;68.53
75775;BME280;64505;51.458;7.556;2023-04-25T08:29:52;99391.66;;;8.24;68.71
75775;BME280;64505;51.458;7.556;2023-04-25T08:31:53;99404.91;;;8.43;68.83
75775;BME280;64505;51.458;7.556;2023-04-25T08:33:55;99405.19;;;8.34;67.75
75775;BME280;64505;51.458;7.556;2023-04-25T08:35:57;99409.13;;;8.44;68.71
75775;BME280;64505;51.458;7.556;2023-04-25T08:37:58;99413.00;;;8.66;67.02
75775;BME280;64505;51.458;7.556;2023-04-25T08:40:00;99409.56;;;8.83;69.73
75775;BME280;64505;51.458;7.556;2023-04-25T08:42:05;99421.69;;;9.09;68.10
75775;BME280;64505;51.458;7.556;2023-04-25T08:44:09;99415.00;;;8.88;65.66
75775;BME280;64505;51.458;7.556;2023-04-25T08:46:12;99422.81;;;8.34;64.65
75775;BME280;64505;51.458;7.556;2023-04-25T08:48:15;99432.53;;;8.58;67.09
75775;BME280;64505;51.458;7.556;2023-04-25T08:50:17;99436.00;;;8.27;66.02
75775;BME280;64505;51.458;7.556;2023-04-25T08:52:23;99439.41;;;8.34;66.47
75775;BME280;64505;51.458;7.556;2023-04-25T08:54:27;99437.38;;;8.36;64.10
75775;BME280;64505;51.458;7.556;2023-04-25T08:56:41;99433.50;;;8.64;65.69
75775;BME280;64505;51.458;7.556;2023-04-25T08:58:45;99441.88;;;8.54;62.46
75775;BME280;64505;51.458;7.556;2023-04-25T09:00:48;99445.25;;;8.86;62.94
75775;BME280;64505;51.458;7.556;2023-04-25T09:02:49;99440.78;;;9.23;65.70
75775;BME280;64505;51.458;7.556;2023-04-25T09:04:53;99445.41;;;8.91;62.10
75775;BME280;64505;51.458;7.556;2023-04-25T09:06:56;99452.78;;;8.58;62.06
75775;BME280;64505;51.458;7.556;2023-04-25T09:09:03;99448.94;;;9.21;63.40
75775;BME280;64505;51.458;7.556;2023-04-25T09:11:06;99454.88;;;9.17;62.74
75775;BME280;64505;51.458;7.556;2023-04-25T09:13:10;99455.97;;;9.27;63.40
75775;BME280;64505;51.458;7.556;2023-04-25T09:15:16;99460.72;;;9.19;62.30
75775;BME280;64505;51.458;7.556;2023-04-25T09:17:21;99456.41;;;8.63;60.74
75775;BME280;64505;51.458;7.556;2023-04-25T09:19:27;99471.59;;;8.68;62.60
75775;BME280;64505;51.458;7.556;2023-04-25T09:21:41;99465.81;;;8.21;60.04
75775;BME280;64505;51.458;7.556;2023-04-25T09:23:47;99472.06;;;8.58;62.52
75775;BME280;64505;51.458;7.556;2023-04-25T09:25:51;99472.03;;;8.83;63.13
75775;BME280;64505;51.458;7.556;2023-04-25T09:27:53;99480.38;;;8.80;62.27
75775;BME280;64505;51.458;7.556;2023-04-25T09:29:58;99475.75;;;9.18;63.18
75775;BME280;64505;51.458;7.556;2023-04-25T09:34:13;99488.94;;;9.00;60.49
75775;BME280;64505;51.458;7.556;2023-04-25T09:36:16;99483.22;;;9.03;59.75
75775;BME280;64505;51.458;7.556;2023-04-25T09:38:18;99485.22;;;9.26;60.79
75775;BME280;64505;51.458;7.556;2023-04-25T09:40:19;99485.16;;;9.51;60.25
75775;BME280;64505;51.458;7.556;2023-04-25T09:42:25;99485.59;;;9.96;62.62
75775;BME280;64505;51.458;7.556;2023-04-25T09:44:27;99489.22;;;9.83;58.41
75775;BME280;64505;51.458;7.556;2023-04-25T09:46:34;99493.63;;;9.16;56.13
75775;BME280;64505;51.458;7.556;2023-04-25T09:48:37;99493.19;;;9.56;57.76
75775;BME280;64505;51.458;7.556;2023-04-25T09:50:39;99477.56;;;9.72;59.58
75775;BME280;64505;51.458;7.556;2023-04-25T09:52:41;99491.81;;;9.35;57.49
75775;BME280;64505;51.458;7.556;2023-04-25T09:54:44;99488.59;;;9.33;58.41
75775;BME280;64505;51.458;7.556;2023-04-25T09:56:48;99495.69;;;8.71;57.96
75775;BME280;64505;51.458;7.556;2023-04-25T09:58:53;99505.84;;;8.93;60.36
75775;BME280;64505;51.458;7.556;2023-04-25T10:01:00;99515.66;;;8.61;59.67
75775;BME280;64505;51.458;7.556;2023-04-25T10:03:02;99517.41;;;8.42;59.30
75775;BME280;64505;51.458;7.556;2023-04-25T10:05:07;99516.97;;;8.45;61.46
75775;BME280;64505;51.458;7.556;2023-04-25T10:07:09;99517.84;;;8.64;61.51
75775;BME280;64505;51.458;7.556;2023-04-25T10:09:12;99518.31;;;8.54;62.03
75775;BME280;64505;51.458;7.556;2023-04-25T10:11:15;99518.84;;;8.87;61.46
75775;BME280;64505;51.458;7.556;2023-04-25T10:13:18;99521.03;;;9.15;61.38
75775;BME280;64505;51.458;7.556;2023-04-25T10:15:21;99514.47;;;9.43;63.54
75775;BME280;64505;51.458;7.556;2023-04-25T10:17:23;99518.13;;;9.42;64.07
75775;BME280;64505;51.458;7.556;2023-04-25T10:19:25;99520.13;;;9.46;64.48
75775;BME280;64505;51.458;7.556;2023-04-25T10:21:28;99521.72;;;9.47;63.76
75775;BME280;64505;51.458;7.556;2023-04-25T10:23:31;99525.84;;;9.43;65.11
75775;BME280;64505;51.458;7.556;2023-04-25T10:25:33;99525.53;;;9.15;60.64
75775;BME280;64505;51.458;7.556;2023-04-25T10:27:35;99523.34;;;9.05;59.19
75775;BME280;64505;51.458;7.556;2023-04-25T10:29:38;99522.00;;;8.78;54.79
75775;BME280;64505;51.458;7.556;2023-04-25T10:31:46;99530.69;;;9.03;57.30
75775;BME280;64505;51.458;7.556;2023-04-25T10:33:48;99531.81;;;9.14;56.65
75775;BME280;64505;51.458;7.556;2023-04-25T10:35:50;99523.53;;;9.83;58.73
75775;BME280;64505;51.458;7.556;2023-04-25T10:38:31;99523.97;;;10.16;53.43
75775;BME280;64505;51.458;7.556;2023-04-25T10:40:26;99522.66;;;10.37;54.71
75775;BME280;64505;51.458;7.556;2023-04-25T10:42:28;99523.78;;;10.94;55.91
75775;BME280;64505;51.458;7.556;2023-04-25T10:44:30;99519.31;;;11.06;52.28
75775;BME280;64505;51.458;7.556;2023-04-25T10:46:32;99519.81;;;10.62;48.14
75775;BME280;64505;51.458;7.556;2023-04-25T10:48:35;99528.81;;;10.72;46.47
75775;BME280;64505;51.458;7.556;2023-04-25T10:50:38;99517.91;;;10.80;49.19
75775;BME280;64505;51.458;7.556;2023-04-25T10:52:40;99526.13;;;10.61;48.37
75775;BME280;64505;51.458;7.556;2023-04-25T10:54:53;99532.25;;;10.31;46.47
75775;BME280;64505;51.458;7.556;2023-04-25T10:56:58;99526.22;;;10.43;47.83
75775;BME280;64505;51.458;7.556;2023-04-25T10:59:08;99527.19;;;10.60;49.61
75775;BME280;64505;51.458;7.556;2023-04-25T11:01:15;99534.84;;;10.38;48.19